Time;durP1;ratioP1;P1;durP2;ratioP2;P2;SDS_P1;SDS_P2;PMS_P1;PMS_P2;Temp;Humidity;BMP_temperature;BMP_pressure;BME280_temperature;BME280_humidity;BME280_pressure;Samples;Min_cycle;Max_cycle;Signal;HPM_P1;HPM_P2
2020/12/04 00:01:59;;;;;;;5.68;4.00;;;5.40;64.20;;;;;;5012197;28;20025;-77
2020/12/04 00:04:25;;;;;;;5.00;4.00;;;5.50;65.30;;;;;;5028601;28;20033;-76
2020/12/04 00:06:51;;;;;;;5.32;3.97;;;5.40;87.90;;;;;;5028253;28;20029;-78
2020/12/04 00:09:16;;;;;;;3.72;2.92;;;6.00;63.30;;;;;;5029346;28;20096;-75
2020/12/04 00:11:42;;;;;;;4.50;3.10;;;5.60;61.30;;;;;;5011784;28;20068;-76
2020/12/04 00:14:07;;;;;;;3.85;3.00;;;6.00;61.60;;;;;;5029008;28;20028;-75
2020/12/04 00:16:33;;;;;;;4.43;2.83;;;5.90;60.80;;;;;;5027583;28;20432;-76
2020/12/04 00:18:58;;;;;;;3.95;3.25;;;5.80;76.90;;;;;;5029479;28;20026;-76
2020/12/04 00:21:24;;;;;;;3.78;3.20;;;6.00;61.90;;;;;;5029462;28;20026;-76
2020/12/04 00:23:50;;;;;;;3.78;3.28;;;5.70;63.30;;;;;;5028080;28;20104;-76
2020/12/04 00:26:15;;;;;;;4.00;3.40;;;5.70;64.20;;;;;;5011745;28;20032;-76
2020/12/04 00:28:41;;;;;;;3.78;3.03;;;5.70;62.60;;;;;;5029292;28;20546;-75
2020/12/04 00:31:06;;;;;;;4.72;3.22;;;5.50;78.40;;;;;;5028182;28;20053;-75
2020/12/04 00:33:32;;;;;;;3.67;3.38;;;5.60;62.90;;;;;;5029125;28;20383;-76
2020/12/04 00:35:57;;;;;;;3.20;2.90;;;5.80;62.40;;;;;;5027704;28;20030;-76
2020/12/04 00:38:23;;;;;;;3.47;2.95;;;5.70;62.10;;;;;;5025756;28;20444;-75
2020/12/04 00:40:48;;;;;;;3.53;2.90;;;5.70;62.60;;;;;;5029047;28;20029;-75
2020/12/04 00:43:14;;;;;;;4.03;3.00;;;5.80;83.30;;;;;;5027967;28;20025;-75
2020/12/04 00:45:40;;;;;;;3.35;3.00;;;5.80;62.90;;;;;;5029317;28;20018;-76
2020/12/04 00:48:05;;;;;;;3.95;2.95;;;5.90;64.50;;;;;;5029338;28;20159;-76
2020/12/04 00:50:31;;;;;;;3.42;3.13;;;5.70;64.20;;;;;;5029133;28;20057;-76
2020/12/04 00:52:56;;;;;;;3.80;2.90;;;5.70;63.40;;;;;;5027837;28;20030;-76
2020/12/04 00:55:22;;;;;;;3.97;2.58;;;5.80;76.80;;;;;;5029010;28;20036;-75
2020/12/04 00:57:47;;;;;;;4.13;3.30;;;6.00;61.20;;;;;;5027501;28;20041;-75
2020/12/04 01:00:13;;;;;;;3.65;3.08;;;5.90;60.50;;;;;;5027757;28;20061;-76
2020/12/04 01:02:39;;;;;;;3.90;3.20;;;6.10;60.20;;;;;;5028850;28;20053;-78
2020/12/04 01:05:05;;;;;;;3.95;3.10;;;6.20;60.20;;;;;;5027809;28;20040;-76
2020/12/04 01:07:31;;;;;;;4.93;2.85;;;;;;;;;;5027281;28;20413;-75
2020/12/04 01:09:56;;;;;;;4.18;2.92;;;6.20;67.70;;;;;;5032974;28;20045;-76
2020/12/04 01:12:22;;;;;;;5.25;3.03;;;6.50;75.10;;;;;;5033000;28;20068;-76
2020/12/04 01:14:48;;;;;;;3.70;3.15;;;;;;;;;;5031692;28;20030;-76
2020/12/04 01:17:15;;;;;;;4.13;3.00;;;6.60;56.50;;;;;;5033094;28;20448;-76
2020/12/04 01:19:41;;;;;;;4.20;2.80;;;;;;;;;;5031479;28;20029;-76
2020/12/04 01:22:06;;;;;;;3.20;2.67;;;6.50;66.70;;;;;;5032705;28;20491;-77
2020/12/04 01:24:32;;;;;;;4.05;2.80;;;6.60;57.00;;;;;;5014823;28;20128;-75
2020/12/04 01:26:57;;;;;;;4.38;2.72;;;6.80;57.10;;;;;;5032577;28;20052;-77
2020/12/04 01:29:23;;;;;;;2.60;2.40;;;6.60;55.90;;;;;;5031242;28;20159;-76
2020/12/04 01:31:49;;;;;;;3.58;2.50;;;6.60;73.20;;;;;;5032467;28;20105;-77
2020/12/04 01:34:14;;;;;;;3.97;2.88;;;6.80;68.50;;;;;;5032779;28;20028;-76
2020/12/04 01:36:40;;;;;;;4.20;3.00;;;6.80;56.00;;;;;;5030989;28;20048;-76
2020/12/04 01:39:05;;;;;;;3.30;2.70;;;6.80;56.20;;;;;;5031372;28;20119;-76
2020/12/04 01:41:35;;;;;;;4.05;2.90;;;7.00;56.50;;;;;;5031379;28;20431;-76
2020/12/04 01:44:01;;;;;;;2.70;2.50;;;;;;;;;;5032712;28;20032;-78
2020/12/04 01:46:27;;;;;;;4.13;2.88;;;6.70;65.00;;;;;;5032233;28;20024;-76
2020/12/04 01:48:52;;;;;;;3.10;2.72;;;7.20;56.40;;;;;;5014496;28;20705;-75
2020/12/04 01:51:18;;;;;;;3.22;2.75;;;6.70;57.40;;;;;;5032065;28;20499;-75
2020/12/04 01:53:44;;;;;;;3.30;2.80;;;6.70;56.80;;;;;;5032438;28;20104;-76
2020/12/04 01:56:10;;;;;;;3.05;2.75;;;;;;;;;;5032370;28;20041;-77
2020/12/04 01:58:36;;;;;;;2.95;2.65;;;6.20;64.60;;;;;;5015475;28;20470;-76
2020/12/04 02:01:02;;;;;;;3.35;2.90;;;6.80;56.30;;;;;;5030933;28;20057;-75
2020/12/04 02:03:28;;;;;;;3.90;3.03;;;6.70;57.20;;;;;;4998798;28;20048;-75
2020/12/04 02:06:05;;;;;;;4.80;3.08;;;6.70;56.80;;;;;;5031686;28;20440;-76
2020/12/04 02:08:37;;;;;;;3.25;2.95;;;6.40;86.80;;;;;;5030621;28;20136;-76
2020/12/04 02:11:12;;;;;;;3.72;3.05;;;6.90;57.10;;;;;;5030378;28;20033;-78
2020/12/04 02:13:38;;;;;;;3.65;2.88;;;6.60;56.70;;;;;;5015487;28;20026;-76
2020/12/04 02:16:03;;;;;;;4.15;3.15;;;6.60;58.00;;;;;;5013577;28;20723;-75
2020/12/04 02:18:29;;;;;;;3.53;3.00;;;6.50;58.70;;;;;;5013854;28;20460;-77
2020/12/04 02:20:59;;;;;;;3.50;2.88;;;6.40;84.40;;;;;;5031716;28;20026;-76
2020/12/04 02:23:25;;;;;;;4.05;3.10;;;6.30;59.90;;;;;;5014065;28;20104;-77
2020/12/04 02:25:50;;;;;;;4.22;3.20;;;6.70;58.60;;;;;;5030345;28;20132;-77
2020/12/04 02:28:16;;;;;;;4.53;3.15;;;6.50;58.50;;;;;;5030102;28;20103;-78
2020/12/04 02:30:42;;;;;;;3.35;2.97;;;6.30;58.80;;;;;;5031321;28;20034;-76
2020/12/04 02:33:07;;;;;;;3.78;3.00;;;6.20;59.00;;;;;;5031412;28;20018;-76
2020/12/04 02:35:33;;;;;;;2.72;2.45;;;6.40;59.50;;;;;;5030270;28;20537;-76
2020/12/04 02:37:58;;;;;;;3.35;2.67;;;6.20;64.30;;;;;;5030112;28;20030;-76
2020/12/04 02:40:24;;;;;;;2.92;2.63;;;6.70;64.10;;;;;;5029988;28;20060;-76
2020/12/04 02:42:50;;;;;;;3.20;2.50;;;5.90;90.70;;;;;;5029904;28;20021;-76
2020/12/04 02:45:15;;;;;;;3.00;2.50;;;5.70;62.90;;;;;;5029784;28;20124;-76
2020/12/04 02:47:41;;;;;;;4.18;3.15;;;5.90;62.70;;;;;;5030003;28;20037;-76
2020/12/04 02:50:06;;;;;;;3.78;3.13;;;5.90;63.30;;;;;;5031193;28;20045;-76
2020/12/04 02:52:32;;;;;;;2.97;2.67;;;5.90;64.20;;;;;;5013283;28;20056;-76
2020/12/04 02:54:58;;;;;;;3.35;2.70;;;5.90;78.20;;;;;;5029686;28;20029;-77
2020/12/04 02:57:23;;;;;;;4.47;2.58;;;5.90;63.20;;;;;;5031360;28;20487;-78
2020/12/04 02:59:49;;;;;;;4.82;2.80;;;6.10;65.60;;;;;;5031451;28;20026;-78
2020/12/04 03:02:14;;;;;;;2.95;2.63;;;5.90;64.60;;;;;;5029812;28;20033;-77
2020/12/04 03:04:40;;;;;;;2.78;2.40;;;5.90;62.60;;;;;;5029638;28;20029;-77
2020/12/04 03:07:06;;;;;;;2.63;2.42;;;6.20;74.20;;;;;;5031062;28;20835;-76
2020/12/04 03:09:31;;;;;;;4.28;2.60;;;6.10;59.50;;;;;;5030854;28;20033;-76
2020/12/04 03:11:58;;;;;;;4.50;2.50;;;6.30;58.60;;;;;;5030643;28;20038;-77
2020/12/04 03:14:23;;;;;;;6.18;2.63;;;6.50;57.90;;;;;;5013105;28;20040;-76
2020/12/04 03:16:49;;;;;;;2.50;2.30;;;6.60;57.30;;;;;;5029520;28;20363;-76
2020/12/04 03:19:15;;;;;;;2.50;2.30;;;6.60;58.50;;;;;;5012991;28;20041;-76
2020/12/04 03:21:40;;;;;;;2.80;2.47;;;6.80;58.60;;;;;;5029508;28;20100;-76
2020/12/04 03:24:06;;;;;;;4.07;2.55;;;6.60;58.20;;;;;;5030936;28;20025;-76
2020/12/04 03:26:32;;;;;;;3.05;2.70;;;6.80;59.00;;;;;;5028896;28;20031;-76
2020/12/04 03:28:57;;;;;;;2.85;2.50;;;6.50;59.10;;;;;;5029250;28;20032;-76
2020/12/04 03:31:23;;;;;;;3.30;2.80;;;;;;;;;;5029540;28;20451;-77
2020/12/04 03:33:49;;;;;;;3.42;2.60;;;6.50;68.80;;;;;;5030243;28;20021;-77
2020/12/04 03:36:14;;;;;;;6.75;2.90;;;6.30;62.90;;;;;;5030315;28;20028;-77
2020/12/04 03:38:40;;;;;;;4.63;2.67;;;6.00;64.70;;;;;;5029108;28;20033;-77
2020/12/04 03:41:05;;;;;;;3.55;2.80;;;6.10;62.90;;;;;;5030236;28;20025;-76
2020/12/04 03:43:32;;;;;;;4.43;3.17;;;;;;;;;;5029875;28;20130;-76
2020/12/04 03:45:58;;;;;;;3.45;2.88;;;5.80;73.30;;;;;;5030106;28;20017;-77
2020/12/04 03:48:23;;;;;;;2.50;2.30;;;6.00;66.40;;;;;;5028655;28;20348;-76
2020/12/04 03:50:49;;;;;;;2.92;2.58;;;5.80;68.10;;;;;;5028684;28;20456;-77
2020/12/04 03:53:14;;;;;;;3.92;3.47;;;6.20;67.20;;;;;;5029968;28;20108;-76
2020/12/04 03:55:40;;;;;;;3.28;2.90;;;;;;;;;;5030084;28;20037;-75
2020/12/04 03:58:06;;;;;;;3.17;2.88;;;5.70;76.80;;;;;;5029735;28;20434;-76
2020/12/04 04:00:31;;;;;;;4.47;2.60;;;5.60;69.90;;;;;;5029922;28;20108;-76
2020/12/04 04:02:57;;;;;;;3.42;2.70;;;5.60;70.50;;;;;;5029951;28;20126;-76
2020/12/04 04:05:23;;;;;;;3.20;2.90;;;5.40;70.70;;;;;;5029961;28;20029;-76
2020/12/04 04:07:50;;;;;;;6.38;4.40;;;5.00;90.40;;;;;;5030050;28;20037;-76
2020/12/04 04:10:15;;;;;;;7.78;4.80;;;5.60;84.50;;;;;;5030029;28;20095;-78
2020/12/04 04:12:41;;;;;;;3.55;3.00;;;5.40;73.00;;;;;;5029512;28;20459;-76
2020/12/04 04:15:07;;;;;;;23.00;13.38;;;5.30;72.20;;;;;;5029630;28;20036;-77
2020/12/04 04:17:32;;;;;;;18.60;11.88;;;5.40;72.60;;;;;;5028161;28;20021;-76
2020/12/04 04:19:58;;;;;;;3.85;3.45;;;;;;;;;;5028388;28;20022;-78
2020/12/04 04:22:24;;;;;;;4.50;3.08;;;5.10;81.90;;;;;;5029505;28;20030;-75
2020/12/04 04:24:49;;;;;;;6.60;2.53;;;5.40;70.80;;;;;;5029206;28;20099;-76
2020/12/04 04:27:15;;;;;;;10.98;7.32;;;5.30;71.80;;;;;;5029423;28;20053;-76
2020/12/04 04:29:41;;;;;;;4.07;3.03;;;4.80;73.40;;;;;;5029327;28;20037;-77
2020/12/04 04:32:07;;;;;;;7.40;5.22;;;;;;;;;;5029555;28;20099;-75
2020/12/04 04:34:32;;;;;;;2.83;2.53;;;6.30;82.10;;;;;;5029261;28;20040;-76
2020/12/04 04:36:58;;;;;;;3.03;2.30;;;5.30;73.40;;;;;;5027829;28;20128;-77
2020/12/04 04:39:23;;;;;;;2.38;2.17;;;5.30;75.90;;;;;;5029058;28;20065;-76
2020/12/04 04:41:59;;;;;;;6.03;4.20;;;5.10;96.80;;;;;;5027573;28;20021;-75
2020/12/04 04:44:25;;;;;;;4.32;3.28;;;;;;;;;;5027787;28;20026;-75
2020/12/04 04:47:04;;;;;;;2.50;2.22;;;5.70;83.70;;;;;;5028978;28;20486;-77
2020/12/04 04:49:38;;;;;;;32.95;20.77;;;5.30;74.90;;;;;;5029074;28;20034;-78
2020/12/04 04:52:05;;;;;;;3.85;3.22;;;5.30;75.40;;;;;;5011814;28;20368;-76
2020/12/04 04:54:33;;;;;;;3.20;2.90;;;5.40;73.30;;;;;;5027480;28;20885;-76
2020/12/04 04:56:59;;;;;;;10.73;8.48;;;;;;;;;;5029128;28;20459;-77
2020/12/04 04:59:24;;;;;;;4.05;3.47;;;5.40;82.40;;;;;;5027697;28;20025;-76
2020/12/04 05:01:50;;;;;;;3.85;3.33;;;5.50;75.10;;;;;;5029151;28;20372;-76
2020/12/04 05:04:16;;;;;;;13.88;9.75;;;5.40;74.60;;;;;;5027799;28;20117;-76
2020/12/04 05:06:42;;;;;;;4.07;3.55;;;5.40;74.90;;;;;;5027479;28;20525;-76
2020/12/04 05:09:08;;;;;;;5.63;3.30;;;5.50;92.90;;;;;;5027076;28;20029;-77
2020/12/04 05:11:35;;;;;;;3.17;2.63;;;6.00;87.00;;;;;;5027575;28;20018;-76
2020/12/04 05:14:13;;;;;;;2.80;2.53;;;5.30;75.70;;;;;;5027602;28;20025;-76
2020/12/04 05:16:40;;;;;;;2.83;2.50;;;5.70;76.60;;;;;;5027399;28;20014;-78
2020/12/04 05:19:06;;;;;;;4.05;3.35;;;5.30;75.40;;;;;;5027372;28;20079;-76
2020/12/04 05:21:32;;;;;;;3.88;2.95;;;;;;;;;;5027493;28;20038;-75
2020/12/04 05:23:59;;;;;;;3.10;2.60;;;4.70;82.70;;;;;;5028389;28;20061;-77
2020/12/04 05:26:29;;;;;;;2.40;2.20;;;5.80;75.10;;;;;;5010806;28;20045;-76
2020/12/04 05:28:55;;;;;;;3.40;2.90;;;5.70;75.20;;;;;;5026960;28;20448;-76
2020/12/04 05:31:20;;;;;;;5.03;2.70;;;6.10;75.70;;;;;;5027535;28;20064;-76
2020/12/04 05:33:46;;;;;;;3.40;2.60;;;5.80;74.70;;;;;;5010844;28;20033;-77
2020/12/04 05:36:26;;;;;;;2.75;2.50;;;5.70;74.20;;;;;;5010660;28;20044;-76
2020/12/04 05:38:52;;;;;;;3.05;2.75;;;5.60;73.60;;;;;;5027888;28;20415;-75
2020/12/04 05:41:17;;;;;;;2.92;2.50;;;5.70;73.90;;;;;;5027428;28;20025;-75
2020/12/04 05:43:43;;;;;;;2.88;2.58;;;5.80;95.40;;;;;;5028373;28;20040;-77
2020/12/04 05:46:17;;;;;;;2.60;2.40;;;5.80;73.90;;;;;;5028625;28;20025;-76
2020/12/04 05:48:43;;;;;;;3.40;2.70;;;5.80;74.20;;;;;;5028631;28;20102;-77
2020/12/04 05:51:08;;;;;;;80.47;39.65;;;5.80;73.20;;;;;;5027180;28;20539;-76
2020/12/04 05:53:34;;;;;;;4.22;3.67;;;5.80;73.80;;;;;;5027134;28;20108;-80
2020/12/04 05:55:59;;;;;;;3.10;2.80;;;6.10;95.80;;;;;;5030779;28;20029;-79
2020/12/04 05:58:26;;;;;;;3.90;2.75;;;5.80;75.10;;;;;;5013423;28;20113;-83
2020/12/04 06:00:52;;;;;;;3.97;2.65;;;5.80;75.90;;;;;;5014178;28;20667;-81
2020/12/04 06:03:17;;;;;;;2.40;2.20;;;5.90;77.30;;;;;;5014434;28;20033;-77
2020/12/04 06:05:43;;;;;;;2.53;2.20;;;6.20;76.10;;;;;;5014030;28;20467;-78
2020/12/04 06:08:08;;;;;;;3.03;2.25;;;6.10;92.60;;;;;;5030882;28;20033;-81
2020/12/04 06:10:34;;;;;;;28.80;17.55;;;6.30;76.30;;;;;;5014295;28;20033;-85
2020/12/04 06:13:00;;;;;;;5.93;2.88;;;6.10;76.50;;;;;;4998253;28;20029;-83
2020/12/04 06:15:30;;;;;;;2.47;2.20;;;6.40;77.60;;;;;;5014499;28;20017;-81
2020/12/04 06:18:05;;;;;;;3.30;2.60;;;6.00;76.50;;;;;;5013672;28;20021;-79
2020/12/04 06:20:47;;;;;;;5.50;2.40;;;6.00;76.20;;;;;;5013984;28;20033;-81
2020/12/04 06:23:14;;;;;;;2.30;2.10;;;6.30;77.40;;;;;;4997702;28;20033;-81
2020/12/04 06:25:56;;;;;;;4.30;2.22;;;6.20;77.60;;;;;;5014199;28;20468;-81
2020/12/04 06:28:27;;;;;;;3.85;2.17;;;6.10;91.80;;;;;;5030430;28;20057;-84
2020/12/04 06:31:09;;;;;;;4.15;1.95;;;5.80;97.50;;;;;;4999922;28;20537;-86
2020/12/04 06:33:39;;;;;;;2.28;2.08;;;5.80;92.50;;;;;;4998988;28;20025;-86
2020/12/04 06:36:06;;;;;;;3.08;2.20;;;6.10;80.00;;;;;;5031012;28;20368;-86
2020/12/04 06:38:35;;;;;;;3.15;2.20;;;6.00;81.30;;;;;;4997136;28;20033;-84
2020/12/04 06:41:24;;;;;;;1.85;1.73;;;5.90;99.20;;;;;;5018600;28;20018;-86
2020/12/04 06:43:51;;;;;;;2.63;2.15;;;5.70;90.60;;;;;;5013068;28;20037;-81
2020/12/04 06:46:34;;;;;;;5.80;4.55;;;6.00;81.20;;;;;;5013556;28;20021;-81
2020/12/04 06:51:59;;;;;;;26.60;14.23;;;5.70;81.80;;;;;;5016279;28;20360;-88
2020/12/04 06:54:26;;;;;;;2.78;2.47;;;5.70;83.30;;;;;;4998107;28;20025;-83
2020/12/04 06:56:52;;;;;;;3.10;2.53;;;;;;;;;;4997288;28;20034;-84
2020/12/04 06:59:39;;;;;;;3.35;2.28;;;5.60;91.20;;;;;;5013158;28;20037;-85
2020/12/04 07:02:14;;;;;;;2.42;2.20;;;5.50;86.00;;;;;;5012823;28;20352;-89
2020/12/04 07:04:41;;;;;;;2.55;2.20;;;5.40;85.20;;;;;;5029955;28;20025;-87
2020/12/04 07:07:12;;;;;;;2.35;2.15;;;5.50;95.30;;;;;;4995968;28;20030;-84
2020/12/04 07:09:38;;;;;;;2.30;2.10;;;5.40;86.30;;;;;;4997009;28;20033;-87
2020/12/04 07:12:05;;;;;;;2.53;2.33;;;;;;;;;;4997275;28;20413;-88
2020/12/04 07:14:31;;;;;;;2.40;2.20;;;;;;;;;;5013001;28;20026;-88
2020/12/04 07:16:56;;;;;;;3.42;2.88;;;5.20;86.70;;;;;;5012526;28;20034;-83
2020/12/04 07:19:23;;;;;;;4.88;2.30;;;5.10;88.60;;;;;;4996402;28;20037;-83
2020/12/04 07:21:49;;;;;;;2.88;2.15;;;4.90;96.20;;;;;;5013072;28;20045;-84
2020/12/04 07:24:15;;;;;;;5.03;3.10;;;5.00;88.30;;;;;;4996455;28;20029;-84
2020/12/04 07:26:47;;;;;;;2.80;2.42;;;4.70;88.40;;;;;;5011957;28;20498;-83
2020/12/04 07:29:13;;;;;;;2.22;2.00;;;4.90;87.80;;;;;;5013307;28;20056;-84
2020/12/04 07:31:43;;;;;;;8.00;6.05;;;5.00;88.60;;;;;;5012626;28;20375;-84
2020/12/04 07:34:09;;;;;;;9.20;6.07;;;4.90;96.00;;;;;;4996752;28;20026;-85
2020/12/04 07:36:34;;;;;;;4.97;2.80;;;5.60;88.80;;;;;;5012402;28;20029;-84
2020/12/04 07:39:00;;;;;;;6.18;2.72;;;5.00;89.80;;;;;;4995657;28;20559;-83
2020/12/04 07:41:31;;;;;;;3.75;2.85;;;5.00;90.00;;;;;;4996261;28;20021;-83
2020/12/04 07:44:01;;;;;;;4.10;2.38;;;4.80;89.90;;;;;;5011997;28;20389;-84
2020/12/04 07:46:27;;;;;;;2.95;2.35;;;5.00;96.90;;;;;;4996002;28;20681;-83
2020/12/04 07:49:07;;;;;;;3.35;2.40;;;5.20;90.00;;;;;;4995725;28;20033;-82
2020/12/04 07:51:35;;;;;;;4.65;2.38;;;4.80;90.10;;;;;;4996930;28;20049;-83
2020/12/04 07:54:04;;;;;;;4.55;3.17;;;5.00;90.30;;;;;;4996217;28;20179;-83
2020/12/04 07:56:30;;;;;;;2.90;2.30;;;4.60;89.80;;;;;;4996281;28;20456;-82
2020/12/04 07:59:06;;;;;;;21.50;12.93;;;4.90;96.20;;;;;;5012305;28;20074;-84
2020/12/04 08:01:39;;;;;;;7.10;4.45;;;4.80;94.50;;;;;;5013074;28;20585;-84
2020/12/04 08:04:05;;;;;;;3.47;2.63;;;4.90;94.40;;;;;;4995283;28;20108;-80
2020/12/04 08:06:30;;;;;;;3.28;2.25;;;5.50;89.50;;;;;;4995830;28;20428;-84
2020/12/04 08:09:07;;;;;;;3.50;2.80;;;5.10;89.00;;;;;;5012099;28;20040;-82
2020/12/04 08:11:35;;;;;;;2.83;2.40;;;5.20;88.10;;;;;;5028562;28;20069;-81
2020/12/04 08:14:01;;;;;;;3.97;2.25;;;;;;;;;;5012137;28;20026;-83
2020/12/04 08:16:26;;;;;;;3.03;2.33;;;4.90;92.50;;;;;;5028267;28;20549;-83
2020/12/04 08:18:52;;;;;;;6.03;2.40;;;5.20;88.30;;;;;;4995449;28;20076;-85
2020/12/04 08:21:17;;;;;;;3.53;2.75;;;5.40;88.70;;;;;;4995314;28;20033;-83
2020/12/04 08:23:53;;;;;;;3.78;2.70;;;5.00;95.10;;;;;;5011301;28;20029;-83
2020/12/04 08:26:19;;;;;;;2.67;2.38;;;5.00;95.90;;;;;;5010894;28;20025;-83
2020/12/04 08:28:55;;;;;;;33.83;16.52;;;5.80;89.00;;;;;;4994970;28;20021;-84
2020/12/04 08:31:22;;;;;;;8.88;4.15;;;5.00;88.10;;;;;;4995423;28;20171;-84
2020/12/04 08:33:47;;;;;;;12.57;7.65;;;5.00;98.70;;;;;;5011805;28;20030;-83
2020/12/04 08:36:13;;;;;;;5.65;4.13;;;5.00;88.50;;;;;;5011805;28;20037;-83
2020/12/04 08:38:51;;;;;;;5.07;3.70;;;5.40;89.20;;;;;;5011674;28;20159;-84
2020/12/04 08:41:17;;;;;;;7.18;3.20;;;4.90;88.00;;;;;;5011429;28;20092;-83
2020/12/04 08:43:43;;;;;;;4.28;3.15;;;4.90;89.50;;;;;;4994722;28;20383;-83
2020/12/04 08:46:09;;;;;;;4.25;3.38;;;4.80;99.90;;;;;;5011519;28;20030;-83
2020/12/04 08:48:36;;;;;;;6.00;4.00;;;5.00;90.10;;;;;;5011612;28;20036;-83
2020/12/04 08:51:03;;;;;;;5.50;3.20;;;5.00;90.10;;;;;;5011417;28;20087;-82
2020/12/04 08:53:29;;;;;;;4.95;3.80;;;5.20;90.50;;;;;;5011779;28;20060;-84
2020/12/04 08:55:56;;;;;;;5.43;3.30;;;5.30;91.00;;;;;;5011274;28;20463;-87
2020/12/04 08:58:23;;;;;;;4.32;3.42;;;4.90;97.20;;;;;;5011436;28;20562;-87
2020/12/04 09:00:49;;;;;;;5.45;3.58;;;5.00;90.70;;;;;;4995018;28;20035;-85
2020/12/04 09:03:15;;;;;;;4.53;3.53;;;5.10;90.90;;;;;;5011634;28;20026;-87
2020/12/04 09:05:41;;;;;;;4.50;3.20;;;5.10;91.10;;;;;;4995359;28;20025;-84
2020/12/04 09:08:07;;;;;;;9.50;5.07;;;5.10;90.90;;;;;;4995331;28;20022;-86
2020/12/04 09:10:33;;;;;;;5.28;4.40;;;4.90;96.70;;;;;;4994856;28;20041;-84
2020/12/04 09:12:58;;;;;;;7.53;5.78;;;5.10;95.40;;;;;;4994961;28;20026;-82
2020/12/04 09:15:26;;;;;;;13.50;12.10;;;5.10;97.20;;;;;;5011177;28;20040;-87
2020/12/04 09:17:51;;;;;;;7.05;6.22;;;5.10;90.50;;;;;;5011320;28;20451;-85
2020/12/04 09:20:17;;;;;;;5.30;4.57;;;5.10;91.20;;;;;;4994873;28;20216;-86
2020/12/04 09:22:44;;;;;;;4.13;3.42;;;;;;;;;;4995109;28;20018;-86
2020/12/04 09:25:11;;;;;;;6.07;3.63;;;5.00;93.90;;;;;;5027734;28;20100;-87
2020/12/04 09:27:36;;;;;;;4.30;3.50;;;5.20;90.20;;;;;;5010994;28;20144;-83
2020/12/04 09:30:10;;;;;;;5.97;4.75;;;5.40;90.60;;;;;;5012225;28;20124;-85
2020/12/04 09:32:35;;;;;;;4.90;4.18;;;5.20;90.10;;;;;;4998461;28;20057;-84
2020/12/04 09:35:01;;;;;;;4.63;3.95;;;5.30;99.90;;;;;;4998646;28;20223;-82
2020/12/04 09:37:28;;;;;;;4.18;3.30;;;5.40;90.50;;;;;;4998473;28;20040;-84
2020/12/04 09:39:59;;;;;;;3.75;3.13;;;5.30;90.50;;;;;;4998372;28;20033;-84
2020/12/04 09:42:25;;;;;;;4.47;3.53;;;5.90;90.50;;;;;;5015070;28;20597;-85
2020/12/04 09:44:51;;;;;;;5.47;4.50;;;5.40;90.80;;;;;;4998090;28;20033;-83
2020/12/04 09:47:17;;;;;;;5.80;4.50;;;5.50;99.90;;;;;;5014670;28;20041;-85
2020/12/04 09:49:43;;;;;;;6.80;4.18;;;;;;;;;;4998377;28;20046;-87
2020/12/04 09:52:08;;;;;;;5.65;3.88;;;5.50;89.70;;;;;;5014156;28;20365;-83
2020/12/04 09:54:36;;;;;;;5.25;3.55;;;5.60;90.40;;;;;;5030643;28;20029;-82
2020/12/04 09:57:03;;;;;;;6.18;3.50;;;5.50;89.90;;;;;;5014564;28;20087;-81
2020/12/04 09:59:28;;;;;;;3.88;3.38;;;5.50;95.90;;;;;;5030978;28;20060;-82
2020/12/04 10:01:55;;;;;;;3.95;3.05;;;5.60;88.20;;;;;;5014289;28;20099;-84
2020/12/04 10:04:21;;;;;;;6.30;3.40;;;5.50;88.90;;;;;;5014692;28;20025;-83
2020/12/04 10:06:47;;;;;;;3.80;3.38;;;5.60;89.70;;;;;;4998287;28;20030;-82
2020/12/04 10:09:13;;;;;;;4.22;3.50;;;5.70;89.60;;;;;;5030514;28;20053;-81
2020/12/04 10:11:39;;;;;;;5.30;3.60;;;5.70;94.90;;;;;;4997764;28;20928;-85
2020/12/04 10:14:04;;;;;;;4.47;3.58;;;5.90;89.10;;;;;;5014163;28;20100;-83
2020/12/04 10:16:30;;;;;;;23.13;16.83;;;5.70;88.00;;;;;;5014013;28;20096;-83
2020/12/04 10:18:57;;;;;;;6.68;4.68;;;5.70;88.70;;;;;;5014285;28;20025;-83
2020/12/04 10:21:26;;;;;;;13.90;10.05;;;5.70;88.40;;;;;;5014416;28;20526;-84
2020/12/04 10:23:54;;;;;;;17.23;11.25;;;5.90;97.00;;;;;;4997874;28;20032;-82
2020/12/04 10:26:20;;;;;;;10.73;6.68;;;5.80;87.50;;;;;;4998274;28;20591;-86
2020/12/04 10:28:46;;;;;;;6.05;4.50;;;;;;;;;;5000606;28;20061;-85
2020/12/04 10:31:12;;;;;;;6.75;4.75;;;5.90;87.80;;;;;;5015016;28;20155;-84
2020/12/04 10:33:37;;;;;;;5.40;4.82;;;5.90;87.80;;;;;;5013076;28;20025;-83
2020/12/04 10:36:03;;;;;;;10.55;5.85;;;6.10;93.10;;;;;;5013633;28;20112;-81
2020/12/04 10:38:29;;;;;;;9.27;6.90;;;6.10;82.50;;;;;;5030163;28;20363;-83
2020/12/04 10:40:55;;;;;;;9.85;7.68;;;5.80;81.40;;;;;;5029994;28;20041;-82
2020/12/04 10:43:21;;;;;;;9.13;7.45;;;5.60;92.80;;;;;;4997480;28;20482;-83
2020/12/04 10:45:46;;;;;;;11.35;7.57;;;6.00;82.00;;;;;;5013440;28;20025;-84
2020/12/04 10:48:12;;;;;;;8.68;7.20;;;5.30;98.30;;;;;;5013414;28;20164;-81
2020/12/04 10:50:38;;;;;;;10.30;7.28;;;5.70;91.20;;;;;;5013056;28;20383;-81
2020/12/04 10:53:03;;;;;;;9.35;7.13;;;5.80;83.10;;;;;;5012637;28;20370;-83
2020/12/04 10:55:32;;;;;;;9.45;7.45;;;5.50;84.60;;;;;;5030018;28;20025;-83
2020/12/04 10:57:58;;;;;;;10.15;7.40;;;5.40;84.60;;;;;;5013464;28;20025;-79
2020/12/04 11:00:29;;;;;;;7.78;6.70;;;5.40;91.10;;;;;;5030784;28;20017;-81
2020/12/04 11:03:15;;;;;;;9.68;6.82;;;5.60;92.60;;;;;;5013216;28;20104;-84
2020/12/04 11:05:44;;;;;;;6.95;5.80;;;5.50;83.80;;;;;;5014051;28;20109;-82
2020/12/04 11:08:10;;;;;;;8.45;6.88;;;5.60;83.80;;;;;;5013866;28;20036;-81
2020/12/04 11:10:36;;;;;;;11.13;6.97;;;5.60;83.70;;;;;;5012835;28;20045;-82
2020/12/04 11:13:02;;;;;;;7.70;5.90;;;5.70;98.80;;;;;;4996962;28;20029;-82
2020/12/04 11:15:31;;;;;;;6.90;5.47;;;5.70;83.50;;;;;;4996742;28;20025;-83
2020/12/04 11:17:56;;;;;;;9.20;5.75;;;5.50;83.50;;;;;;4996322;28;20550;-83
2020/12/04 11:20:22;;;;;;;7.25;5.97;;;5.60;84.30;;;;;;5029181;28;20025;-82
2020/12/04 11:22:49;;;;;;;9.73;6.38;;;5.60;84.50;;;;;;5012082;28;20051;-81
2020/12/04 11:25:14;;;;;;;7.30;5.57;;;5.50;93.00;;;;;;5011383;28;20032;-81
2020/12/04 11:27:44;;;;;;;6.13;5.03;;;5.60;84.70;;;;;;5012192;28;20419;-81
2020/12/04 11:30:22;;;;;;;7.72;5.60;;;5.60;84.70;;;;;;5013136;28;20033;-81
2020/12/04 11:32:49;;;;;;;6.60;5.22;;;5.60;84.90;;;;;;4996081;28;20452;-82
2020/12/04 11:35:15;;;;;;;6.50;4.90;;;5.60;84.00;;;;;;5012648;28;20029;-81
2020/12/04 11:37:43;;;;;;;7.20;5.70;;;5.50;94.00;;;;;;4996684;28;20451;-84
2020/12/04 11:40:09;;;;;;;8.50;5.88;;;5.50;98.60;;;;;;5012823;28;20488;-84
2020/12/04 11:42:37;;;;;;;7.90;5.90;;;6.30;91.50;;;;;;5012748;28;20018;-81
2020/12/04 11:45:07;;;;;;;6.30;5.25;;;5.90;83.20;;;;;;4993354;28;20410;-83
2020/12/04 11:47:33;;;;;;;6.22;5.32;;;5.80;83.00;;;;;;5028416;28;20030;-85
2020/12/04 11:49:59;;;;;;;5.70;4.50;;;5.90;82.30;;;;;;5012332;28;20064;-82
2020/12/04 11:52:24;;;;;;;5.68;4.63;;;5.70;98.10;;;;;;4995476;28;20345;-82
2020/12/04 11:54:50;;;;;;;5.88;5.28;;;6.20;91.10;;;;;;5011824;28;20025;-80
2020/12/04 11:57:15;;;;;;;5.43;4.57;;;5.90;82.40;;;;;;5027477;28;20044;-85
2020/12/04 11:59:41;;;;;;;5.90;4.55;;;6.10;81.70;;;;;;5012429;28;20061;-86
2020/12/04 12:02:07;;;;;;;5.20;4.30;;;5.90;81.30;;;;;;5030112;28;20026;-81
2020/12/04 12:04:33;;;;;;;8.25;5.40;;;6.20;97.80;;;;;;5028345;28;20029;-82
2020/12/04 12:06:58;;;;;;;5.45;4.85;;;6.00;90.60;;;;;;5011363;28;20041;-83
2020/12/04 12:09:24;;;;;;;6.05;4.85;;;5.90;81.40;;;;;;5011884;28;20034;-83
2020/12/04 12:11:50;;;;;;;5.70;4.90;;;5.90;81.60;;;;;;4995249;28;20029;-83
2020/12/04 12:14:16;;;;;;;5.22;4.40;;;5.60;95.10;;;;;;5011557;28;20045;-81
2020/12/04 12:16:45;;;;;;;4.70;4.07;;;5.90;89.30;;;;;;5011658;28;20653;-84
2020/12/04 12:19:12;;;;;;;5.25;3.80;;;6.00;91.20;;;;;;5011290;28;20091;-81
2020/12/04 12:21:41;;;;;;;6.50;4.30;;;6.20;83.60;;;;;;4995426;28;20033;-79
2020/12/04 12:24:06;;;;;;;5.10;4.40;;;5.90;83.60;;;;;;5028906;28;20024;-81
2020/12/04 12:26:32;;;;;;;5.10;4.20;;;;;;;;;;4995042;28;20559;-80
2020/12/04 12:28:58;;;;;;;6.53;3.92;;;6.00;86.60;;;;;;5028846;28;20080;-79
2020/12/04 12:31:24;;;;;;;5.32;4.05;;;5.90;80.60;;;;;;5028388;28;20056;-80
2020/12/04 12:33:50;;;;;;;6.03;4.10;;;5.90;80.90;;;;;;5012314;28;20026;-78
2020/12/04 12:36:16;;;;;;;5.95;4.40;;;5.80;80.70;;;;;;5028914;28;20116;-79
2020/12/04 12:38:42;;;;;;;6.35;4.93;;;;;;;;;;5027883;28;20039;-81
2020/12/04 12:41:09;;;;;;;6.72;5.25;;;5.70;88.30;;;;;;5027796;28;20100;-81
2020/12/04 12:43:34;;;;;;;7.05;5.00;;;5.90;92.40;;;;;;5027632;28;20083;-80
2020/12/04 12:46:00;;;;;;;9.05;5.65;;;5.60;82.20;;;;;;4995063;28;20700;-78
2020/12/04 12:48:44;;;;;;;6.22;4.72;;;5.60;97.60;;;;;;5011256;28;20064;-82
2020/12/04 12:51:10;;;;;;;6.88;5.93;;;5.60;82.00;;;;;;5027339;28;20041;-79
2020/12/04 12:53:35;;;;;;;6.82;5.82;;;5.60;82.10;;;;;;5010112;28;20021;-79
2020/12/04 12:56:01;;;;;;;6.28;4.78;;;5.60;82.40;;;;;;5010144;28;20448;-79
2020/12/04 12:58:27;;;;;;;7.18;4.93;;;5.60;82.40;;;;;;5027024;28;20036;-79
2020/12/04 13:00:52;;;;;;;6.07;5.00;;;6.10;82.60;;;;;;4993728;28;20032;-79
2020/12/04 13:03:18;;;;;;;8.40;4.78;;;5.60;82.10;;;;;;5026272;28;20104;-79
2020/12/04 13:05:44;;;;;;;5.15;4.57;;;5.50;82.70;;;;;;5010196;28;20067;-81